Time;durP1;ratioP1;P1;durP2;ratioP2;P2;SDS_P1;SDS_P2;PMS_P1;PMS_P2;Temp;Humidity;BMP_temperature;BMP_pressure;BME280_temperature;BME280_humidity;BME280_pressure;Samples;Min_cycle;Max_cycle;Signal;HPM_P1;HPM_P2
2023/01/24 06:26:35;;;;;;;;;;;;;;;;;;;;;
2023/01/24 06:33:23;;;;;;;42.20;24.67;;;3.40;99.90;;;;;;4039208;29;20272;-94
2023/01/24 06:38:48;;;;;;;39.60;22.93;;;3.30;99.90;;;;;;4024509;29;20217;-95
2023/01/24 06:42:29;;;;;;;;;;;;;;;;;;;;;
2023/01/24 06:44:47;;;;;;;42.37;22.87;;;3.20;99.90;;;;;;3941890;29;20181;-94
2023/01/24 06:47:26;;;;;;;29.47;16.73;;;3.20;99.90;;;;;;4026207;29;20217;-93
2023/01/24 06:49:39;;;;;;;39.07;19.33;;;3.00;99.90;;;;;;4024116;29;20178;-93
2023/01/24 06:52:18;;;;;;;42.10;23.10;;;2.90;99.90;;;;;;4024135;29;20186;-95
2023/01/24 07:01:19;;;;;;;43.23;24.57;;;3.10;99.90;;;;;;4014224;29;20181;-92
2023/01/24 07:03:30;;;;;;;43.83;25.37;;;3.00;99.90;;;;;;4022214;29;20179;-92
2023/01/24 07:05:43;;;;;;;47.23;27.27;;;2.90;99.90;;;;;;4039436;29;20186;-94
2023/01/24 07:07:52;;;;;;;47.97;27.97;;;2.90;99.90;;;;;;4037241;29;20213;-94
2023/01/24 07:10:23;;;;;;;41.80;23.10;;;2.90;99.90;;;;;;4007882;29;20205;-94
2023/01/24 07:15:15;;;;;;;47.93;25.00;;;2.90;99.90;;;;;;4027558;29;20189;-94
2023/01/24 07:18:01;;;;;;;48.00;25.77;;;2.90;99.90;;;;;;4038697;29;20736;-94
2023/01/24 07:20:35;;;;;;;48.30;22.50;;;2.90;99.90;;;;;;4025626;29;20190;-94
2023/01/24 07:23:13;;;;;;;42.80;22.33;;;2.90;99.90;;;;;;4008782;29;20263;-93
2023/01/24 07:26:11;;;;;;;;;;;;;;;;;;;;;
2023/01/24 07:28:35;;;;;;;44.57;25.53;;;3.20;99.90;;;;;;4039348;29;20728;-94
2023/01/24 07:30:48;;;;;;;44.03;24.30;;;3.30;99.90;;;;;;4022784;29;20178;-94
2023/01/24 07:32:56;;;;;;;46.67;25.03;;;3.10;99.90;;;;;;4024231;29;20265;-94
2023/01/24 07:35:47;;;;;;;52.93;27.33;;;3.10;99.90;;;;;;4041675;29;20189;-94
2023/01/24 07:37:56;;;;;;;42.63;25.33;;;3.10;99.90;;;;;;3986680;29;20211;-94
2023/01/24 07:40:08;;;;;;;47.57;27.00;;;3.10;99.90;;;;;;4006782;29;20710;-94
2023/01/24 07:42:11;;;;;;;49.93;26.83;;;3.10;99.90;;;;;;4022450;29;20247;-92
2023/01/24 07:44:21;;;;;;;39.83;21.87;;;3.00;99.90;;;;;;4037560;29;20249;-94
2023/01/24 07:47:08;;;;;;;51.13;25.73;;;2.90;99.90;;;;;;4020482;29;20196;-93
2023/01/24 07:49:29;;;;;;;45.60;23.27;;;2.80;99.90;;;;;;4017651;29;20686;-93
2023/01/24 07:51:33;;;;;;;50.77;25.87;;;2.80;99.90;;;;;;4022601;29;20190;-94
2023/01/24 07:54:36;;;;;;;;;;;;;;;;;;;;;
2023/01/24 07:57:10;;;;;;;;;;;;;;;;;;;;;
2023/01/24 07:59:58;;;;;;;49.30;24.33;;;3.20;99.90;;;;;;4022803;29;20190;-93
2023/01/24 08:03:23;;;;;;;;;;;;;;;;;;;;;
2023/01/24 08:06:19;;;;;;;33.73;18.83;;;3.00;99.90;;;;;;4036978;29;20197;-94
2023/01/24 08:08:20;;;;;;;43.57;25.73;;;3.40;99.90;;;;;;4018300;29;20209;-93
2023/01/24 08:10:34;;;;;;;44.03;23.07;;;3.30;99.90;;;;;;4008094;29;20175;-95
2023/01/24 08:15:52;;;;;;;43.03;23.87;;;2.90;99.90;;;;;;4018945;29;20221;-93
2023/01/24 08:18:15;;;;;;;44.10;23.93;;;2.90;99.90;;;;;;4015798;29;20201;-94
2023/01/24 08:20:28;;;;;;;66.97;31.73;;;3.00;99.90;;;;;;4038552;29;20268;-93
2023/01/24 08:22:38;;;;;;;55.50;31.73;;;3.00;99.90;;;;;;4006825;29;20212;-93
2023/01/24 08:24:45;;;;;;;43.90;24.67;;;3.00;99.90;;;;;;4022508;29;20273;-92
2023/01/24 08:26:48;;;;;;;42.27;21.73;;;2.90;99.90;;;;;;4007381;29;20692;-95
2023/01/24 08:29:00;;;;;;;53.50;31.10;;;2.80;99.90;;;;;;4007487;29;20191;-92
2023/01/24 08:31:40;;;;;;;47.47;25.77;;;2.80;99.90;;;;;;4021860;29;20248;-94
2023/01/24 08:33:44;;;;;;;50.60;28.03;;;2.70;99.90;;;;;;4008123;29;20187;-95
2023/01/24 08:35:55;;;;;;;49.90;26.93;;;2.70;99.90;;;;;;4008720;29;20222;-94
2023/01/24 08:38:07;;;;;;;56.60;32.57;;;2.70;99.90;;;;;;4008212;29;20248;-93
2023/01/24 08:40:12;;;;;;;49.03;26.90;;;2.70;99.90;;;;;;4011282;29;20183;-93
2023/01/24 08:42:13;;;;;;;57.97;32.30;;;2.70;99.90;;;;;;4009490;29;20191;-95
2023/01/24 08:44:17;;;;;;;53.87;29.77;;;2.70;99.90;;;;;;4024794;29;20724;-95
2023/01/24 08:46:26;;;;;;;52.37;27.70;;;2.70;99.90;;;;;;4011235;29;20612;-94
2023/01/24 08:48:58;;;;;;;;;;;;;;;;;;;;;
2023/01/24 08:51:15;;;;;;;53.40;25.53;;;3.00;99.90;;;;;;4041080;29;20192;-92
2023/01/24 08:53:26;;;;;;;56.13;28.70;;;3.10;99.90;;;;;;4039934;29;20562;-93
2023/01/24 08:55:54;;;;;;;62.03;28.47;;;3.10;99.90;;;;;;4024538;29;20245;-94
2023/01/24 08:58:49;;;;;;;57.13;31.20;;;3.10;99.90;;;;;;4024066;29;20194;-93
2023/01/24 09:04:46;;;;;;;51.30;25.67;;;3.00;99.90;;;;;;4021070;29;20221;-93
2023/01/24 09:10:04;;;;;;;60.83;33.63;;;3.20;99.90;;;;;;4040842;29;20652;-94
2023/01/24 09:12:25;;;;;;;58.27;31.33;;;3.10;99.90;;;;;;4024743;29;20632;-93
2023/01/24 09:14:37;;;;;;;49.30;27.03;;;3.10;99.90;;;;;;4026520;29;20262;-94
2023/01/24 09:16:45;;;;;;;57.60;29.87;;;3.00;99.90;;;;;;4024103;29;20225;-93
2023/01/24 09:18:54;;;;;;;54.37;29.83;;;2.90;99.90;;;;;;4040847;29;20197;-95
2023/01/24 09:21:11;;;;;;;57.73;32.40;;;2.90;99.90;;;;;;4008881;29;20186;-93
2023/01/24 09:25:54;;;;;;;60.20;31.43;;;3.00;99.90;;;;;;4040456;29;20265;-93
2023/01/24 09:27:57;;;;;;;55.43;29.63;;;3.00;99.90;;;;;;4039308;29;20225;-94
2023/01/24 09:29:58;;;;;;;63.83;33.50;;;3.10;99.90;;;;;;4009038;29;20242;-93
2023/01/24 09:32:13;;;;;;;63.97;34.43;;;3.40;99.90;;;;;;4025663;29;20205;-92
2023/01/24 09:34:22;;;;;;;65.13;35.70;;;3.40;99.90;;;;;;4010125;29;20179;-94
2023/01/24 09:36:27;;;;;;;62.20;33.63;;;3.60;99.90;;;;;;4039947;29;20255;-93
2023/01/24 09:40:00;;;;;;;;;;;;;;;;;;;;;
2023/01/24 09:43:09;;;;;;;53.67;28.47;;;3.60;99.90;;;;;;4029694;29;20272;-92
2023/01/24 09:46:02;;;;;;;66.33;34.20;;;3.40;99.90;;;;;;3948551;30;20279;-93
2023/01/24 10:52:37;;;;;;;53.47;30.73;;;3.60;99.90;;;;;;4631487;23;20306;-95
2023/01/24 10:55:39;;;;;;;53.60;30.63;;;3.70;99.90;;;;;;3955751;29;20200;-96
2023/01/24 11:02:01;;;;;;;56.07;31.60;;;3.40;99.90;;;;;;4075608;29;20179;-95
2023/01/24 11:09:42;;;;;;;59.23;33.30;;;3.40;99.90;;;;;;4009990;29;21041;-95
2023/01/24 11:16:00;;;;;;;;;;;;;;;;;;;;;
2023/01/24 11:18:37;;;;;;;;;;;;;;;;;;;;;
2023/01/24 11:27:55;;;;;;;63.23;33.57;;;3.50;99.90;;;;;;3892699;30;20222;-96
2023/01/24 11:37:31;;;;;;;66.03;32.93;;;3.60;99.90;;;;;;3903817;30;20223;-94
2023/01/24 11:41:21;;;;;;;55.10;29.50;;;3.50;99.90;;;;;;3908978;30;20204;-95
2023/01/24 11:43:49;;;;;;;57.13;32.73;;;3.40;99.90;;;;;;3903569;30;20203;-94
2023/01/24 11:46:26;;;;;;;;;;;;;;;;;;;;;
2023/01/24 11:52:41;;;;;;;;;;;;;;;;;;;;;
2023/01/24 11:55:12;;;;;;;48.77;26.37;;;3.50;99.90;;;;;;3991255;29;20191;-94
2023/01/24 12:27:04;;;;;;;;;;;;;;;;;;;;;
2023/01/24 12:34:06;;;;;;;58.13;33.80;;;3.70;99.90;;;;;;4631414;23;20251;-95
2023/01/24 12:37:07;;;;;;;53.30;29.93;;;3.60;99.90;;;;;;4083024;29;20257;-94
2023/01/24 13:54:17;;;;;;;58.37;32.23;;;3.40;99.90;;;;;;4070102;29;20200;-93
2023/01/24 14:00:01;;;;;;;53.47;29.13;;;3.40;99.90;;;;;;3995526;29;20724;-94
2023/01/24 14:02:49;;;;;;;;;;;;;;;;;;;;;
2023/01/24 14:06:11;;;;;;;52.90;29.00;;;3.20;99.90;;;;;;3979632;29;20245;-94
2023/01/24 14:08:51;;;;;;;47.83;24.00;;;3.50;99.90;;;;;;3993663;29;20207;-94
2023/01/24 14:17:48;;;;;;;55.53;27.27;;;4.00;99.90;;;;;;3964110;29;20292;-94
2023/01/24 14:20:35;;;;;;;53.27;29.37;;;3.90;99.90;;;;;;3952977;30;20208;-94
2023/01/24 14:23:31;;;;;;;;;;;;;;;;;;;;;
2023/01/24 14:32:57;;;;;;;51.97;29.20;;;3.80;99.90;;;;;;3992998;29;20216;-94
2023/01/24 14:45:23;;;;;;;54.40;30.50;;;3.60;99.90;;;;;;3982586;29;20260;-95
2023/01/24 14:48:19;;;;;;;;;;;;;;;;;;;;;
2023/01/24 14:54:24;;;;;;;;;;;;;;;;;;;;;
2023/01/24 15:00:35;;;;;;;59.23;31.23;;;3.50;99.90;;;;;;3948104;30;20189;-95
2023/01/24 15:03:41;;;;;;;;;;;;;;;;;;;;;
2023/01/24 15:58:56;;;;;;;60.60;34.07;;;3.50;99.90;;;;;;4499484;23;20286;-93
2023/01/24 16:01:34;;;;;;;66.10;36.13;;;3.40;99.90;;;;;;4083539;29;20187;-95
2023/01/24 16:03:35;;;;;;;60.67;33.20;;;3.10;99.90;;;;;;4053302;29;20181;-94
2023/01/24 16:07:02;;;;;;;;;;;;;;;;;;;;;
2023/01/24 16:12:47;;;;;;;54.10;29.10;;;3.20;99.90;;;;;;4017787;29;20186;-95
2023/01/24 16:15:42;;;;;;;66.23;35.20;;;3.10;99.90;;;;;;4067891;29;20724;-95
2023/01/24 16:25:22;;;;;;;;;;;;;;;;;;;;;
